Estación Meteorológica Peña el Pijo (Robertgarden) [ 11/12/18 20:45:06 CET ]

Fecha Hora Presion(HPa) Temp (°C) Humedad % Rocio (°C) Viento ( m/s) Direccion Lluvia 1Hora(mm) Lluvia 24H(mm) LLuvia Total(mm)
2018-Jul-06 01:01:29 1014.300 15.3 53 5.8         269.36
2018-Jul-06 02:01:47 1014.200 13.9 58 5.8         269.36
2018-Jul-06 03:01:41 1013.800 13.3 61 5.9         269.36
2018-Jul-06 04:03:11 1013.600 12.6 62 5.5         269.36
2018-Jul-06 05:01:34 1013.500 12.2 64 5.6         269.36
2018-Jul-06 06:01:28 1013.500 11.5 67 5.6         269.36
2018-Jul-06 07:01:19 1013.400 10.6 69 5.2         269.36
2018-Jul-06 08:01:18 1013.700 13.1 71 8.0         269.36
2018-Jul-06 09:01:38 1013.300 19.8 55 10.5         269.36
2018-Jul-06 10:01:21 1013.300 25.8 42 11.9         269.36
2018-Jul-06 11:01:18 1013.300 27.8 31 9.1 2.0 S     269.36
2018-Jul-06 12:01:46 1013.700 29.1 27 8.0         269.36
2018-Jul-06 13:01:35 1013.300 30.7 26 8.8         269.36
2018-Jul-06 14:01:48 1013.100 30.5 23 6.8 3.0 SW     269.36
2018-Jul-06 15:01:43 1012.600 32.2 21 7.1 1.8 NW     269.36
2018-Jul-06 16:01:48 1012.200 33.1 21 7.8 0.4 WNW     269.36
2018-Jul-06 17:01:56 1011.600 33.1 22 8.4         269.36
2018-Jul-06 18:01:48 1011.300 32.1 24 8.8         269.36
2018-Jul-06 19:01:49 1011.000 29.9 27 8.7         269.36
2018-Jul-06 20:01:49 1011.700 27.9 30 8.7         269.36
2018-Jul-06 21:01:46 1012.300 24.4 34 7.4         269.36
2018-Jul-06 22:01:43 1012.700 22.5 39 7.8         269.36
2018-Jul-06 23:01:51 1013.600 20.5 43 7.4         269.36

Temperatura Máxima:33°    Temperatura Mínima:10°
Presión Máxima:1014.300 Hpa    Presión Mínima:1011.000 Hpa


Volver